• Join FlightAware (Why Join?)
  • Login
  • US Flag 
08:27PM EDT


 

Airport Tracker/Info


-or-


 

Live Flight TrackerFlight Track Log ✈ UAL4434 ✈ 25-Jun-2014 ✈ KEWR - KMHT

Flight Track Log - Related Links

Times and Time Zones

All times are in EDT time to prevent confusion due to time zone crossing. See the UAL4434 flight status page for this flight to view local times or setup timezone preferences in your user account.

Time Position Orientation Groundspeed Altitude Reporting Facility
EDT Latitude Longitude Course Direction KTS MPH feet Rate Location/Type
12:28PM 40.6333 -74.2000 40° Northeast 200 230 2,600  Level New York TRACON
12:29PM 40.7000 -74.2167 349° North 260 299 4,800 2,220 Climbing New York TRACON
12:30PM 40.7667 -74.1667 30° Northeast 279 321 7,100 2,100 Climbing New York TRACON
12:31PM 40.8333 -74.1000 37° Northeast 305 351 9,100 1,200 Climbing New York TRACON
12:33PM 41.0148 -73.8001 40° Northeast  Level FlightAware Approximate
12:33PM 40.9406 -73.8631 59° Northeast 370 426 11,200  Level Boston Center
12:34PM 41.0150 -73.7517 48° Northeast 387 445 12,300 1,020 Climbing Boston Center
12:35PM 41.1117 -73.6614 35° Northeast 394 453 13,400 960 Climbing Boston Center
12:36PM 41.2031 -73.5747 35° Northeast 399 459 14,400 960 Climbing Boston Center
12:37PM 41.2844 -73.4722 43° Northeast 403 464 15,400 1,020 Climbing Boston Center
12:38PM 41.3742 -73.3622 43° Northeast 405 466 16,500 780 Climbing Boston Center
12:39PM 41.4686 -73.2836 32° Northeast 407 468 17,000 240 Climbing Boston Center
12:40PM 41.5817 -73.2017 28° Northeast 425 489 17,000  Level Boston Center
12:41PM 41.6886 -73.1233 29° Northeast 434 499 17,000  Level Boston Center
12:42PM 41.7947 -73.0453 29° Northeast 436 502 17,000  Level Boston Center
12:43PM 41.9086 -72.9608 29° Northeast 435 501 17,000  Level Boston Center
12:44PM 42.0139 -72.8825 29° Northeast 434 499 17,000  Level Boston Center
12:45PM 42.1197 -72.8036 29° Northeast 433 498 17,000  Level Boston Center
12:46PM 42.2244 -72.7242 29° Northeast 433 498 17,000 -360 Level Boston Center
12:47PM 42.3361 -72.6397 29° Northeast 431 496 16,300 -840 Descending Boston Center
12:48PM 42.4378 -72.5631 29° Northeast 425 489 15,300 -660 Descending Boston Center
12:49PM 42.5347 -72.4906 29° Northeast 408 470 15,000 -720 Descending Boston Center
12:50PM 42.6319 -72.4153 30° Northeast 406 467 13,800 -1,620 Descending Boston Center
12:51PM 42.7308 -72.3414 29° Northeast 408 470 11,800 -1,680 Descending Boston Center
12:52PM 42.7978 -72.2219 53° Northeast 363 418 10,400 -1,140 Descending Boston Center
12:53PM 42.8094 -72.0956 83° East 314 361 9,500 -960 Descending Boston Center
12:55PM 42.8400 -71.9889 69° East 307 353 8,500 -1,020 Descending Boston Center
12:56PM 42.8764 -71.8864 64° Northeast 304 350 7,500 -1,080 Descending Boston Center
12:57PM 42.9072 -71.7722 70° East 303 349 6,400 -1,020 Descending Boston Center
12:58PM 42.9278 -71.6669 75° East 291 335 5,500 -1,200 Descending Boston Center
12:59PM 42.9497 -71.5656 73° East 280 322 4,000 -1,500 Descending Boston Center
01:00PM 42.9919 -71.4836 55° Northeast 249 287 2,500 -1,080 Descending Boston Center
01:01PM 43.0278 -71.4189 53° Northeast 229 264 1,800 -480 Descending Boston Center
01:02PM 42.9908 -71.3925 152° Southeast 158 182 1,500 -600 Descending Boston Center
01:03PM 42.9553 -71.4158 206° Southwest 139 160 700 -540 Descending Boston Center
01:04PM 42.9308 -71.4442 220° Southwest 134 154 400 -300 Descending Boston Center